Monroe Township, Ohio
Current Conditions -  °F | °C
As of 1:53 AM on Sunday 23 Nov 2014 (Local Time) from KHZY Reporting Station
Overcast Overcast  
Wind Chill: 38°   Ceiling: 4000
Heat Index: 44°   Visibility: 10mi
Dew Point: 34°   Wind: 12mph
Humidity: 68%   Direction: 190°S
Pressure: 30.04"   Gusts: NA
Location:  41.8949°N, 80.5816°W
Report Text: KHZY 230653Z AUTO 19010KT 10SM OVC040 07/01 A3004 RMK AO2 SLP177 T00670011
Loading
Personal Weather Stations






























Interactive Weather Map New forecast layout! Learn more

10-Day Weather Forecast

Advertisements
Track Severe Weather on mobile